ADDS METAR Data INFO
IDs: Format: Raw Decoded Include TAF

Data at: 1029 UTC 23 Feb 2018

KMFE 230953Z AUTO 07007KT 9SM OVC005 16/14 A3011 RMK AO2 PRESFR SLP194 T01560144
KMFE 230853Z AUTO 32003KT 10SM OVC007 16/14 A3016 RMK AO2 SLP211 T01560144 58012
KMFE 230753Z AUTO 05005KT 10SM OVC008 16/14 A3015 RMK AO2 SLP209 T01560144
KMFE 230653Z AUTO 32003KT 10SM OVC006 16/14 A3020 RMK AO2 SLP225 T01560144
KMFE 230638Z AUTO 28006KT 10SM BKN006 OVC011 16/14 A3021 RMK AO2 T01560144
KMFE 230553Z AUTO 00000KT 10SM OVC012 16/14 A3019 RMK AO2 SLP223 60000 T01560144 10156 20150 401610111 53001
KMFE 230537Z VRB03KT 10SM SCT005 OVC012 15/14 A3019 RMK AO2 T01500144
KMFE 230453Z 01006KT 6SM BR OVC005 15/14 A3018 RMK AO2 RAB01E24 SLP219 P0000 T01500144
KMFE 230425Z 36006KT 3SM BR BKN005 OVC013 15/14 A3018 RMK AO2 RAB01E24 P0000 T01500144
KMFE 230407Z 35007KT 2 1/2SM -RA BR BKN005 OVC012 15/14 A3019 RMK AO2 RAB01 P0000 T01500144
KMFE 230353Z 34007KT 4SM BR OVC005 15/14 A3019 RMK AO2 SLP223 T01500139
KMFE 230300Z 33006KT 5SM BR OVC005 15/14 A3019 RMK AO2 T01500139
KMFE 230253Z 32005KT 5SM BR OVC004 15/14 A3019 RMK AO2 SLP221 T01500139 53015
KMFE 230231Z 32007KT 6SM BR OVC004 15/14 A3018 RMK AO2 T01500139
KMFE 230220Z 32007KT 6SM BR OVC005 15/14 A3018 RMK AO2 T01500139
KMFE 230153Z 36008KT 6SM BR OVC004 15/14 A3016 RMK AO2 SLP211 T01500139
KMFE 230150Z 36008KT 7SM OVC004 15/14 A3016 RMK AO2
KMFE 230053Z 36006KT 3SM BR OVC006 15/14 A3014 RMK AO2 SLP206 T01500144
KMFE 222353Z 04005KT 9SM OVC008 16/14 A3012 RMK AO2 SLP200 T01560139 10161 20133 55002
KMFE 222253Z 01003KT 10SM OVC009 16/14 A3011 RMK AO2 SLP197 T01610139
KMFE 222153Z VRB03KT 10SM OVC009 16/13 A3012 RMK AO2 SLP198 T01610133
KMFE 222053Z 34006KT 10SM OVC009 16/13 A3013 RMK AO2 SLP202 T01560133 56030
KMFE 221953Z 31007KT 10SM OVC008 15/13 A3016 RMK AO2 SLP211 T01500133
KMFE 221853Z 35006KT 10SM OVC007 14/13 A3019 RMK AO2 SLP223 T01440128
KMFE 221753Z 32007KT 10SM OVC006 13/12 A3022 RMK AO2 SLP232 T01330122 10139 20111 50000
KMFE 221653Z 34006KT 9SM OVC005 13/12 A3023 RMK AO2 SLP235 T01280117
KMFE 221553Z 32009KT 7SM OVC005 12/11 A3023 RMK AO2 SLP235 T01220111
KMFE 221453Z 32007KT 4SM BR OVC005 12/11 A3022 RMK AO2 SLP232 T01170111 53020
KMFE 221353Z 33007KT 7SM OVC005 12/11 A3020 RMK AO2 SLP226 T01170106
KMFE 221327Z 32008KT 5SM BR OVC004 12/11 A3019 RMK AO2 T01170111
KMFE 221314Z 33007KT 5SM BR OVC005 12/11 A3019 RMK AO2 T01170111
KMFE 221253Z 34009KT 5SM BR OVC004 12/11 A3018 RMK AO2 CIG 003V007 SLP217 T01170106
KMFE 221243Z 31009KT 4SM BR OVC004 12/11 A3018 RMK AO2 T01170111
KMFE 221153Z 33009KT 5SM BR OVC005 12/11 A3016 RMK AO2 SLP212 60003 70031 T01170111 10139 20117 53001
KMFE 221116Z AUTO 31008KT 8SM OVC005 12/11 A3016 RMK AO2 T01170111
KMFE 221053Z AUTO 32010KT 8SM OVC004 12/11 A3015 RMK AO2 SLP208 T01170111
KMFE 220953Z AUTO 33008KT 4SM BR OVC006 12/11 A3015 RMK AO2 CIG 004V009 SLP208 T01170111
KMFE 220918Z AUTO 33010KT 4SM BR OVC005 12/11 A3016 RMK AO2 T01170111
KMFE 220903Z AUTO 34011KT 5SM BR OVC004 12/11 A3016 RMK AO2 T01170111
KMFE 220853Z AUTO 32008KT 5SM BR OVC006 12/11 A3016 RMK AO2 RAB0759E10B42E52 CIG 004V009 SLP211 P0000 60003 T01220111 56001
KMFE 220753Z AUTO 34010KT 8SM BKN005 OVC009 13/12 A3016 RMK AO2 RAB16E41 SLP211 P0003 T01280117
KMFE 220653Z AUTO 36011KT 9SM OVC005 13/12 A3015 RMK AO2 RAE11 SLP207 P0000 T01280122
KMFE 220553Z AUTO 33013KT 6SM RA BR OVC007 14/13 A3016 RMK AO2 SLP212 P0002 60028 T01390128 10289 20139 403170139 51033
KMFE 220501Z 32012KT 8SM -RA BKN009 BKN030 OVC100 16/15 A3014 RMK AO2 PRESRR P0000 T01610150
KMFE 220453Z 34007KT 8SM -RA FEW015 BKN026 OVC110 17/16 A3012 RMK AO2 WSHFT 0423 TSB10E52 SLP199 P0023 T01670156
KMFE 220446Z 36008KT 8SM -TSRA SCT016 BKN030 OVC100 17/16 A3012 RMK AO2 WSHFT 0423 TSB10 P0022 T01670156
KMFE 220437Z 05013G22KT 2SM -TSRA BR SCT016 BKN024 OVC080 17/16 A3010 RMK AO2 WSHFT 0423 TSB10 P0022 T01670156
KMFE 220432Z 04015G22KT 1 3/4SM +TSRA BR SCT016 SCT020 OVC026 17/16 A3010 RMK AO2 LTG DSNT S TSB10 P0022 T01670156
KMFE 220416Z 36009KT 6SM TSRA BR OVC016 18/16 A3012 RMK AO2 LTG DSNT E AND SW AND W TSB10 P0005 T01780161
KMFE 220353Z 01010KT 6SM VCTS RA BR OVC015 19/17 A3011 RMK AO2 LTG DSNT SE-W RAB18 TSB12E27 SLP193 P0003 T01890167
KMFE 212353Z 14011KT 10SM SCT047 29/22 A2997 RMK AO2 SLP146 T02890222 10317 20283 53008
KMFE 212253Z 13014KT 10SM SCT039 SCT049 31/22 A2994 RMK AO2 SLP137 T03060222